sensor_id;sensor_type;location;lat;lon;timestamp;temperature;humidity
27188;DHT22;14708;50.872;5.306;2023-05-07T00:02:12;22.10;65.60
27188;DHT22;14708;50.872;5.306;2023-05-07T00:04:37;22.10;65.80
27188;DHT22;14708;50.872;5.306;2023-05-07T00:07:04;22.10;65.90
27188;DHT22;14708;50.872;5.306;2023-05-07T00:09:31;22.10;66.00
27188;DHT22;14708;50.872;5.306;2023-05-07T00:11:56;22.10;66.10
27188;DHT22;14708;50.872;5.306;2023-05-07T00:14:26;22.10;66.00
27188;DHT22;14708;50.872;5.306;2023-05-07T00:16:55;22.10;65.90
27188;DHT22;14708;50.872;5.306;2023-05-07T00:19:24;22.10;65.90
27188;DHT22;14708;50.872;5.306;2023-05-07T00:21:52;22.00;65.90
27188;DHT22;14708;50.872;5.306;2023-05-07T00:24:19;22.10;65.80
27188;DHT22;14708;50.872;5.306;2023-05-07T00:26:45;22.00;65.80
27188;DHT22;14708;50.872;5.306;2023-05-07T00:29:14;22.00;66.10
27188;DHT22;14708;50.872;5.306;2023-05-07T00:31:40;22.00;66.20
27188;DHT22;14708;50.872;5.306;2023-05-07T00:34:05;22.00;66.00
27188;DHT22;14708;50.872;5.306;2023-05-07T00:36:34;22.00;66.00
27188;DHT22;14708;50.872;5.306;2023-05-07T00:39:00;22.00;66.00
27188;DHT22;14708;50.872;5.306;2023-05-07T00:41:29;22.00;66.00
27188;DHT22;14708;50.872;5.306;2023-05-07T00:43:57;22.00;65.90
27188;DHT22;14708;50.872;5.306;2023-05-07T00:46:23;22.00;65.80
27188;DHT22;14708;50.872;5.306;2023-05-07T00:48:50;22.00;66.20
27188;DHT22;14708;50.872;5.306;2023-05-07T00:51:15;22.00;65.80
27188;DHT22;14708;50.872;5.306;2023-05-07T00:53:41;21.90;65.70
27188;DHT22;14708;50.872;5.306;2023-05-07T00:56:07;22.00;65.90
27188;DHT22;14708;50.872;5.306;2023-05-07T00:58:33;22.00;65.70
27188;DHT22;14708;50.872;5.306;2023-05-07T01:00:59;22.00;65.70
27188;DHT22;14708;50.872;5.306;2023-05-07T01:03:25;22.00;65.80
27188;DHT22;14708;50.872;5.306;2023-05-07T01:05:51;22.00;65.40
27188;DHT22;14708;50.872;5.306;2023-05-07T01:08:21;22.00;65.80
27188;DHT22;14708;50.872;5.306;2023-05-07T01:10:47;22.10;65.60
27188;DHT22;14708;50.872;5.306;2023-05-07T01:13:17;22.10;65.50
27188;DHT22;14708;50.872;5.306;2023-05-07T01:15:51;22.00;65.60
27188;DHT22;14708;50.872;5.306;2023-05-07T01:18:16;22.00;65.50
27188;DHT22;14708;50.872;5.306;2023-05-07T01:20:42;22.00;65.60
27188;DHT22;14708;50.872;5.306;2023-05-07T01:23:08;22.00;65.50
27188;DHT22;14708;50.872;5.306;2023-05-07T01:25:34;22.00;65.40
27188;DHT22;14708;50.872;5.306;2023-05-07T01:28:00;22.00;65.70
27188;DHT22;14708;50.872;5.306;2023-05-07T01:30:26;22.00;65.60
27188;DHT22;14708;50.872;5.306;2023-05-07T01:35:48;22.00;65.50
27188;DHT22;14708;50.872;5.306;2023-05-07T01:38:18;22.00;65.50
27188;DHT22;14708;50.872;5.306;2023-05-07T01:40:44;22.00;65.50
27188;DHT22;14708;50.872;5.306;2023-05-07T01:43:10;22.00;65.60
27188;DHT22;14708;50.872;5.306;2023-05-07T01:45:41;22.00;65.60
27188;DHT22;14708;50.872;5.306;2023-05-07T01:48:07;22.00;65.40
27188;DHT22;14708;50.872;5.306;2023-05-07T01:50:36;22.00;65.40
27188;DHT22;14708;50.872;5.306;2023-05-07T01:53:02;22.00;65.50
27188;DHT22;14708;50.872;5.306;2023-05-07T01:55:28;22.00;65.40
27188;DHT22;14708;50.872;5.306;2023-05-07T01:57:53;21.90;65.50
27188;DHT22;14708;50.872;5.306;2023-05-07T02:00:21;22.00;65.60
27188;DHT22;14708;50.872;5.306;2023-05-07T02:02:50;21.90;65.30
27188;DHT22;14708;50.872;5.306;2023-05-07T02:05:16;21.90;65.50
27188;DHT22;14708;50.872;5.306;2023-05-07T02:07:44;21.90;65.50
27188;DHT22;14708;50.872;5.306;2023-05-07T02:10:12;21.90;65.50
27188;DHT22;14708;50.872;5.306;2023-05-07T02:12:38;21.90;65.60
27188;DHT22;14708;50.872;5.306;2023-05-07T02:15:04;21.90;65.60
27188;DHT22;14708;50.872;5.306;2023-05-07T02:17:30;22.00;65.70
27188;DHT22;14708;50.872;5.306;2023-05-07T02:19:58;21.90;65.50
27188;DHT22;14708;50.872;5.306;2023-05-07T02:22:24;21.90;65.50
27188;DHT22;14708;50.872;5.306;2023-05-07T02:24:49;21.90;65.50
27188;DHT22;14708;50.872;5.306;2023-05-07T02:27:15;21.90;65.50
27188;DHT22;14708;50.872;5.306;2023-05-07T02:29:40;21.90;65.50
27188;DHT22;14708;50.872;5.306;2023-05-07T02:32:06;21.90;65.10
27188;DHT22;14708;50.872;5.306;2023-05-07T02:34:32;21.90;65.40
27188;DHT22;14708;50.872;5.306;2023-05-07T02:36:57;21.90;65.40
27188;DHT22;14708;50.872;5.306;2023-05-07T02:39:23;21.90;65.50
27188;DHT22;14708;50.872;5.306;2023-05-07T02:41:48;21.90;65.60
27188;DHT22;14708;50.872;5.306;2023-05-07T02:44:14;21.80;65.40
27188;DHT22;14708;50.872;5.306;2023-05-07T02:46:42;21.90;65.70
27188;DHT22;14708;50.872;5.306;2023-05-07T02:49:07;21.90;65.80
27188;DHT22;14708;50.872;5.306;2023-05-07T02:51:33;21.80;65.60
27188;DHT22;14708;50.872;5.306;2023-05-07T02:53:58;21.80;65.60
27188;DHT22;14708;50.872;5.306;2023-05-07T02:56:31;21.80;65.60
27188;DHT22;14708;50.872;5.306;2023-05-07T02:58:57;21.80;65.50
27188;DHT22;14708;50.872;5.306;2023-05-07T03:01:23;21.80;65.50
27188;DHT22;14708;50.872;5.306;2023-05-07T03:03:49;21.90;65.80
27188;DHT22;14708;50.872;5.306;2023-05-07T03:06:17;21.90;65.40
27188;DHT22;14708;50.872;5.306;2023-05-07T03:08:42;21.80;65.50
27188;DHT22;14708;50.872;5.306;2023-05-07T03:11:08;21.80;65.80
27188;DHT22;14708;50.872;5.306;2023-05-07T03:13:34;21.90;65.70
27188;DHT22;14708;50.872;5.306;2023-05-07T03:15:59;21.80;65.60
27188;DHT22;14708;50.872;5.306;2023-05-07T03:18:25;21.80;65.40
27188;DHT22;14708;50.872;5.306;2023-05-07T03:20:53;21.80;65.40
27188;DHT22;14708;50.872;5.306;2023-05-07T03:23:21;21.80;65.50
27188;DHT22;14708;50.872;5.306;2023-05-07T03:25:47;21.80;65.50
27188;DHT22;14708;50.872;5.306;2023-05-07T03:28:12;21.80;65.40
27188;DHT22;14708;50.872;5.306;2023-05-07T03:30:40;21.80;65.40
27188;DHT22;14708;50.872;5.306;2023-05-07T03:33:09;21.80;65.40
27188;DHT22;14708;50.872;5.306;2023-05-07T03:35:35;21.80;65.40
27188;DHT22;14708;50.872;5.306;2023-05-07T03:38:01;21.80;65.40
27188;DHT22;14708;50.872;5.306;2023-05-07T03:40:26;21.80;65.70
27188;DHT22;14708;50.872;5.306;2023-05-07T03:42:52;21.80;65.40
27188;DHT22;14708;50.872;5.306;2023-05-07T03:45:18;21.80;65.40
27188;DHT22;14708;50.872;5.306;2023-05-07T03:47:43;21.80;65.50
27188;DHT22;14708;50.872;5.306;2023-05-07T03:50:09;21.80;65.40
27188;DHT22;14708;50.872;5.306;2023-05-07T03:52:35;21.80;65.50
27188;DHT22;14708;50.872;5.306;2023-05-07T03:55:03;21.80;65.60
27188;DHT22;14708;50.872;5.306;2023-05-07T03:57:29;21.80;65.60
27188;DHT22;14708;50.872;5.306;2023-05-07T03:59:57;21.80;65.50
27188;DHT22;14708;50.872;5.306;2023-05-07T04:02:26;21.70;65.40
27188;DHT22;14708;50.872;5.306;2023-05-07T04:04:51;21.80;65.60
27188;DHT22;14708;50.872;5.306;2023-05-07T04:07:20;21.70;66.30
27188;DHT22;14708;50.872;5.306;2023-05-07T04:09:45;21.70;65.50
27188;DHT22;14708;50.872;5.306;2023-05-07T04:12:11;21.80;65.50
27188;DHT22;14708;50.872;5.306;2023-05-07T04:14:37;21.80;65.50
27188;DHT22;14708;50.872;5.306;2023-05-07T04:17:20;21.70;65.80
27188;DHT22;14708;50.872;5.306;2023-05-07T04:19:48;21.80;65.50
27188;DHT22;14708;50.872;5.306;2023-05-07T04:22:14;21.80;65.50
27188;DHT22;14708;50.872;5.306;2023-05-07T04:24:42;21.70;65.30
27188;DHT22;14708;50.872;5.306;2023-05-07T04:27:07;21.80;65.40
27188;DHT22;14708;50.872;5.306;2023-05-07T04:29:33;21.70;65.40
27188;DHT22;14708;50.872;5.306;2023-05-07T04:31:59;21.70;65.40
27188;DHT22;14708;50.872;5.306;2023-05-07T04:34:24;21.70;65.50
27188;DHT22;14708;50.872;5.306;2023-05-07T04:36:50;21.70;65.30
27188;DHT22;14708;50.872;5.306;2023-05-07T04:39:15;21.70;65.40
27188;DHT22;14708;50.872;5.306;2023-05-07T04:41:41;21.70;65.40
27188;DHT22;14708;50.872;5.306;2023-05-07T04:44:07;21.70;65.60
27188;DHT22;14708;50.872;5.306;2023-05-07T04:46:34;21.70;65.40
27188;DHT22;14708;50.872;5.306;2023-05-07T04:49:00;21.70;65.50
27188;DHT22;14708;50.872;5.306;2023-05-07T04:51:25;21.70;65.60
27188;DHT22;14708;50.872;5.306;2023-05-07T04:53:51;21.60;65.50
27188;DHT22;14708;50.872;5.306;2023-05-07T04:56:17;21.60;65.40
27188;DHT22;14708;50.872;5.306;2023-05-07T04:58:42;21.70;65.50
27188;DHT22;14708;50.872;5.306;2023-05-07T05:01:10;21.70;65.40
27188;DHT22;14708;50.872;5.306;2023-05-07T05:03:36;21.70;65.50
27188;DHT22;14708;50.872;5.306;2023-05-07T05:06:05;21.70;65.50
27188;DHT22;14708;50.872;5.306;2023-05-07T05:08:30;21.70;65.50
27188;DHT22;14708;50.872;5.306;2023-05-07T05:10:58;21.70;65.50
27188;DHT22;14708;50.872;5.306;2023-05-07T05:13:28;21.70;65.50
27188;DHT22;14708;50.872;5.306;2023-05-07T05:15:53;21.70;65.40
27188;DHT22;14708;50.872;5.306;2023-05-07T05:18:19;21.70;65.40
27188;DHT22;14708;50.872;5.306;2023-05-07T05:20:45;21.70;65.50
27188;DHT22;14708;50.872;5.306;2023-05-07T05:23:11;21.70;65.40
27188;DHT22;14708;50.872;5.306;2023-05-07T05:25:36;21.70;65.30
27188;DHT22;14708;50.872;5.306;2023-05-07T05:28:05;21.70;65.40
27188;DHT22;14708;50.872;5.306;2023-05-07T05:30:31;21.70;65.20
27188;DHT22;14708;50.872;5.306;2023-05-07T05:32:57;21.70;65.40
27188;DHT22;14708;50.872;5.306;2023-05-07T05:35:22;21.80;65.00
27188;DHT22;14708;50.872;5.306;2023-05-07T05:37:48;21.80;65.10
27188;DHT22;14708;50.872;5.306;2023-05-07T05:40:13;21.70;65.30
27188;DHT22;14708;50.872;5.306;2023-05-07T05:42:39;21.70;65.30
27188;DHT22;14708;50.872;5.306;2023-05-07T05:45:05;21.70;65.20
27188;DHT22;14708;50.872;5.306;2023-05-07T05:47:31;21.80;64.20
27188;DHT22;14708;50.872;5.306;2023-05-07T05:49:56;21.80;63.70
27188;DHT22;14708;50.872;5.306;2023-05-07T05:52:22;21.80;63.50
27188;DHT22;14708;50.872;5.306;2023-05-07T05:54:49;21.80;64.10
27188;DHT22;14708;50.872;5.306;2023-05-07T05:57:14;21.80;64.10
27188;DHT22;14708;50.872;5.306;2023-05-07T05:59:40;21.90;64.30
27188;DHT22;14708;50.872;5.306;2023-05-07T06:02:06;21.90;64.50
27188;DHT22;14708;50.872;5.306;2023-05-07T06:04:32;21.80;65.20
27188;DHT22;14708;50.872;5.306;2023-05-07T06:06:57;21.80;65.90
27188;DHT22;14708;50.872;5.306;2023-05-07T06:09:25;21.80;65.80
27188;DHT22;14708;50.872;5.306;2023-05-07T06:11:51;21.80;65.10
27188;DHT22;14708;50.872;5.306;2023-05-07T06:14:16;21.90;65.20
27188;DHT22;14708;50.872;5.306;2023-05-07T06:16:42;21.80;65.30
27188;DHT22;14708;50.872;5.306;2023-05-07T06:19:10;21.80;65.50
27188;DHT22;14708;50.872;5.306;2023-05-07T06:21:36;21.80;65.50
27188;DHT22;14708;50.872;5.306;2023-05-07T06:24:12;21.80;65.50
27188;DHT22;14708;50.872;5.306;2023-05-07T06:26:40;21.80;65.70
27188;DHT22;14708;50.872;5.306;2023-05-07T06:29:06;21.80;65.50
27188;DHT22;14708;50.872;5.306;2023-05-07T06:31:32;21.80;65.30
27188;DHT22;14708;50.872;5.306;2023-05-07T06:33:57;21.90;65.20
27188;DHT22;14708;50.872;5.306;2023-05-07T06:36:24;22.00;64.80
27188;DHT22;14708;50.872;5.306;2023-05-07T06:38:50;22.00;64.70
27188;DHT22;14708;50.872;5.306;2023-05-07T06:41:15;22.00;64.70
27188;DHT22;14708;50.872;5.306;2023-05-07T06:43:41;21.90;64.60
27188;DHT22;14708;50.872;5.306;2023-05-07T06:46:06;22.00;64.70
27188;DHT22;14708;50.872;5.306;2023-05-07T06:48:32;22.10;64.60
27188;DHT22;14708;50.872;5.306;2023-05-07T06:50:58;22.10;64.50
27188;DHT22;14708;50.872;5.306;2023-05-07T06:53:26;22.00;64.60
27188;DHT22;14708;50.872;5.306;2023-05-07T06:55:53;22.00;64.90
27188;DHT22;14708;50.872;5.306;2023-05-07T06:58:19;22.00;64.90
27188;DHT22;14708;50.872;5.306;2023-05-07T07:00:44;22.00;65.00
27188;DHT22;14708;50.872;5.306;2023-05-07T07:03:11;22.00;65.30
27188;DHT22;14708;50.872;5.306;2023-05-07T07:05:36;22.00;65.20
27188;DHT22;14708;50.872;5.306;2023-05-07T07:08:02;22.00;65.10
27188;DHT22;14708;50.872;5.306;2023-05-07T07:10:27;22.00;65.00
27188;DHT22;14708;50.872;5.306;2023-05-07T07:12:53;22.10;65.10
27188;DHT22;14708;50.872;5.306;2023-05-07T07:15:19;22.00;64.90
27188;DHT22;14708;50.872;5.306;2023-05-07T07:17:46;22.10;65.00
27188;DHT22;14708;50.872;5.306;2023-05-07T07:20:11;22.10;64.80
27188;DHT22;14708;50.872;5.306;2023-05-07T07:22:37;22.10;64.70
27188;DHT22;14708;50.872;5.306;2023-05-07T07:25:03;22.10;64.70
27188;DHT22;14708;50.872;5.306;2023-05-07T07:27:28;22.00;65.50
27188;DHT22;14708;50.872;5.306;2023-05-07T07:29:54;22.00;65.70
27188;DHT22;14708;50.872;5.306;2023-05-07T07:32:19;22.00;66.00
27188;DHT22;14708;50.872;5.306;2023-05-07T07:34:45;22.10;66.10
27188;DHT22;14708;50.872;5.306;2023-05-07T07:37:11;22.10;66.10
27188;DHT22;14708;50.872;5.306;2023-05-07T07:39:37;22.10;66.10
27188;DHT22;14708;50.872;5.306;2023-05-07T07:42:05;22.10;66.30
27188;DHT22;14708;50.872;5.306;2023-05-07T07:44:34;22.10;66.60
27188;DHT22;14708;50.872;5.306;2023-05-07T07:46:59;22.10;66.60
27188;DHT22;14708;50.872;5.306;2023-05-07T07:49:25;22.20;66.70
27188;DHT22;14708;50.872;5.306;2023-05-07T07:51:50;22.20;66.90
27188;DHT22;14708;50.872;5.306;2023-05-07T07:54:16;22.10;66.90
27188;DHT22;14708;50.872;5.306;2023-05-07T07:56:42;22.10;67.10
27188;DHT22;14708;50.872;5.306;2023-05-07T07:59:07;22.20;67.30
27188;DHT22;14708;50.872;5.306;2023-05-07T08:03:23;22.50;73.90
27188;DHT22;14708;50.872;5.306;2023-05-07T08:05:49;22.40;67.10
27188;DHT22;14708;50.872;5.306;2023-05-07T08:08:16;22.40;67.20
27188;DHT22;14708;50.872;5.306;2023-05-07T08:10:42;22.40;67.30
27188;DHT22;14708;50.872;5.306;2023-05-07T08:13:08;22.30;67.60
27188;DHT22;14708;50.872;5.306;2023-05-07T08:15:33;22.40;68.70
27188;DHT22;14708;50.872;5.306;2023-05-07T08:17:59;22.40;69.00
27188;DHT22;14708;50.872;5.306;2023-05-07T08:20:28;22.40;69.20
27188;DHT22;14708;50.872;5.306;2023-05-07T08:22:54;22.40;69.60
27188;DHT22;14708;50.872;5.306;2023-05-07T08:25:20;22.40;69.50
27188;DHT22;14708;50.872;5.306;2023-05-07T08:27:51;22.40;69.20
27188;DHT22;14708;50.872;5.306;2023-05-07T08:30:17;22.50;78.70
27188;DHT22;14708;50.872;5.306;2023-05-07T08:32:43;22.40;71.50
27188;DHT22;14708;50.872;5.306;2023-05-07T08:35:08;22.50;70.20
27188;DHT22;14708;50.872;5.306;2023-05-07T08:37:34;22.50;68.80
27188;DHT22;14708;50.872;5.306;2023-05-07T08:40:00;22.60;69.30
27188;DHT22;14708;50.872;5.306;2023-05-07T08:42:27;22.60;69.20
27188;DHT22;14708;50.872;5.306;2023-05-07T08:44:57;22.70;69.10
27188;DHT22;14708;50.872;5.306;2023-05-07T08:47:26;22.80;67.10
27188;DHT22;14708;50.872;5.306;2023-05-07T08:49:57;22.70;68.00
27188;DHT22;14708;50.872;5.306;2023-05-07T08:52:24;22.70;68.60
27188;DHT22;14708;50.872;5.306;2023-05-07T08:54:50;22.70;68.70
27188;DHT22;14708;50.872;5.306;2023-05-07T08:57:15;22.70;68.40
27188;DHT22;14708;50.872;5.306;2023-05-07T08:59:41;22.60;68.80
27188;DHT22;14708;50.872;5.306;2023-05-07T09:02:09;22.60;68.60
27188;DHT22;14708;50.872;5.306;2023-05-07T09:04:35;22.60;68.90
27188;DHT22;14708;50.872;5.306;2023-05-07T09:07:01;22.60;69.20
27188;DHT22;14708;50.872;5.306;2023-05-07T09:09:32;22.60;69.00
27188;DHT22;14708;50.872;5.306;2023-05-07T09:12:00;22.60;69.10
27188;DHT22;14708;50.872;5.306;2023-05-07T09:14:27;22.60;68.90
27188;DHT22;14708;50.872;5.306;2023-05-07T09:16:53;22.60;69.00
27188;DHT22;14708;50.872;5.306;2023-05-07T09:19:23;22.60;68.80
27188;DHT22;14708;50.872;5.306;2023-05-07T09:21:50;22.60;68.80
27188;DHT22;14708;50.872;5.306;2023-05-07T09:24:22;22.70;68.70
27188;DHT22;14708;50.872;5.306;2023-05-07T09:26:48;22.60;68.40
27188;DHT22;14708;50.872;5.306;2023-05-07T09:29:15;22.60;68.60
27188;DHT22;14708;50.872;5.306;2023-05-07T09:31:42;22.60;68.10
27188;DHT22;14708;50.872;5.306;2023-05-07T09:34:08;22.60;67.70
27188;DHT22;14708;50.872;5.306;2023-05-07T09:36:33;22.60;67.80
27188;DHT22;14708;50.872;5.306;2023-05-07T09:39:00;22.60;67.50
27188;DHT22;14708;50.872;5.306;2023-05-07T09:41:26;22.60;67.40
27188;DHT22;14708;50.872;5.306;2023-05-07T09:43:55;22.60;67.70
27188;DHT22;14708;50.872;5.306;2023-05-07T09:46:23;22.60;67.90
27188;DHT22;14708;50.872;5.306;2023-05-07T09:48:52;22.60;67.80
27188;DHT22;14708;50.872;5.306;2023-05-07T09:51:34;22.60;67.80
27188;DHT22;14708;50.872;5.306;2023-05-07T09:54:07;22.60;68.20
27188;DHT22;14708;50.872;5.306;2023-05-07T09:56:32;22.60;69.20
27188;DHT22;14708;50.872;5.306;2023-05-07T09:59:00;22.60;69.50
27188;DHT22;14708;50.872;5.306;2023-05-07T10:01:27;22.60;69.80
27188;DHT22;14708;50.872;5.306;2023-05-07T10:03:53;22.60;70.00
27188;DHT22;14708;50.872;5.306;2023-05-07T10:06:20;22.60;70.00
27188;DHT22;14708;50.872;5.306;2023-05-07T10:08:46;22.60;70.10
27188;DHT22;14708;50.872;5.306;2023-05-07T10:11:14;22.60;70.20
27188;DHT22;14708;50.872;5.306;2023-05-07T10:13:41;22.60;70.20
27188;DHT22;14708;50.872;5.306;2023-05-07T10:16:08;22.60;70.50
27188;DHT22;14708;50.872;5.306;2023-05-07T10:18:34;22.50;69.90
27188;DHT22;14708;50.872;5.306;2023-05-07T10:21:08;22.40;69.10
27188;DHT22;14708;50.872;5.306;2023-05-07T10:23:34;22.40;69.10
27188;DHT22;14708;50.872;5.306;2023-05-07T10:26:05;22.40;69.80
27188;DHT22;14708;50.872;5.306;2023-05-07T10:28:37;22.50;69.70
27188;DHT22;14708;50.872;5.306;2023-05-07T10:33:53;22.50;69.30
27188;DHT22;14708;50.872;5.306;2023-05-07T10:36:20;22.50;68.70
27188;DHT22;14708;50.872;5.306;2023-05-07T10:38:46;22.50;68.70
27188;DHT22;14708;50.872;5.306;2023-05-07T10:41:12;22.50;68.60
27188;DHT22;14708;50.872;5.306;2023-05-07T10:43:42;22.60;68.30
27188;DHT22;14708;50.872;5.306;2023-05-07T10:46:15;22.50;68.30
27188;DHT22;14708;50.872;5.306;2023-05-07T10:51:26;22.50;68.80
27188;DHT22;14708;50.872;5.306;2023-05-07T10:56:42;22.60;68.80
27188;DHT22;14708;50.872;5.306;2023-05-07T11:04:23;22.60;69.40
27188;DHT22;14708;50.872;5.306;2023-05-07T11:15:34;22.60;69.60
27188;DHT22;14708;50.872;5.306;2023-05-07T11:18:00;22.60;69.70
27188;DHT22;14708;50.872;5.306;2023-05-07T11:20:59;22.50;69.60
27188;DHT22;14708;50.872;5.306;2023-05-07T11:26:02;22.60;69.20
27188;DHT22;14708;50.872;5.306;2023-05-07T11:28:28;22.60;69.10
27188;DHT22;14708;50.872;5.306;2023-05-07T11:30:56;22.60;69.30
27188;DHT22;14708;50.872;5.306;2023-05-07T11:33:22;22.60;69.50
27188;DHT22;14708;50.872;5.306;2023-05-07T11:35:53;22.50;69.50
27188;DHT22;14708;50.872;5.306;2023-05-07T11:38:19;22.50;69.40
27188;DHT22;14708;50.872;5.306;2023-05-07T11:41:03;22.50;69.40
27188;DHT22;14708;50.872;5.306;2023-05-07T11:43:31;22.50;69.50
27188;DHT22;14708;50.872;5.306;2023-05-07T11:46:11;22.50;69.30
27188;DHT22;14708;50.872;5.306;2023-05-07T11:48:38;22.50;69.30
27188;DHT22;14708;50.872;5.306;2023-05-07T11:51:07;22.50;69.50
27188;DHT22;14708;50.872;5.306;2023-05-07T11:53:41;22.50;69.20
27188;DHT22;14708;50.872;5.306;2023-05-07T11:56:08;22.50;69.30
27188;DHT22;14708;50.872;5.306;2023-05-07T11:58:34;22.50;69.20
27188;DHT22;14708;50.872;5.306;2023-05-07T12:01:00;22.50;69.20
27188;DHT22;14708;50.872;5.306;2023-05-07T12:03:26;22.40;69.10
27188;DHT22;14708;50.872;5.306;2023-05-07T12:05:52;22.40;69.30
27188;DHT22;14708;50.872;5.306;2023-05-07T12:08:18;22.50;69.10
27188;DHT22;14708;50.872;5.306;2023-05-07T12:10:46;22.50;69.10
27188;DHT22;14708;50.872;5.306;2023-05-07T12:13:20;22.50;69.20
27188;DHT22;14708;50.872;5.306;2023-05-07T12:15:46;22.40;69.10
27188;DHT22;14708;50.872;5.306;2023-05-07T12:18:13;22.40;69.10
27188;DHT22;14708;50.872;5.306;2023-05-07T12:20:39;22.40;68.90
27188;DHT22;14708;50.872;5.306;2023-05-07T12:23:05;22.40;69.10
27188;DHT22;14708;50.872;5.306;2023-05-07T12:25:38;22.40;68.80
27188;DHT22;14708;50.872;5.306;2023-05-07T12:28:04;22.40;68.90
27188;DHT22;14708;50.872;5.306;2023-05-07T12:30:44;22.40;68.80
27188;DHT22;14708;50.872;5.306;2023-05-07T12:33:10;22.50;68.80
27188;DHT22;14708;50.872;5.306;2023-05-07T12:35:39;22.40;68.80
27188;DHT22;14708;50.872;5.306;2023-05-07T12:38:12;22.40;68.70
27188;DHT22;14708;50.872;5.306;2023-05-07T12:40:46;22.40;69.00
27188;DHT22;14708;50.872;5.306;2023-05-07T12:43:26;22.50;68.80
27188;DHT22;14708;50.872;5.306;2023-05-07T12:45:54;22.40;68.70
27188;DHT22;14708;50.872;5.306;2023-05-07T12:48:21;22.40;68.70
27188;DHT22;14708;50.872;5.306;2023-05-07T12:50:51;22.40;68.60
27188;DHT22;14708;50.872;5.306;2023-05-07T12:53:20;22.40;68.60
27188;DHT22;14708;50.872;5.306;2023-05-07T12:55:47;22.40;68.60
27188;DHT22;14708;50.872;5.306;2023-05-07T12:58:26;22.50;68.40
27188;DHT22;14708;50.872;5.306;2023-05-07T13:00:54;22.50;68.40
27188;DHT22;14708;50.872;5.306;2023-05-07T13:03:28;22.50;68.30
27188;DHT22;14708;50.872;5.306;2023-05-07T13:05:56;22.60;68.50
27188;DHT22;14708;50.872;5.306;2023-05-07T13:08:33;22.60;68.60
27188;DHT22;14708;50.872;5.306;2023-05-07T13:11:00;22.60;68.30
27188;DHT22;14708;50.872;5.306;2023-05-07T13:13:32;22.60;68.30
27188;DHT22;14708;50.872;5.306;2023-05-07T13:15:58;22.60;68.60
27188;DHT22;14708;50.872;5.306;2023-05-07T13:18:30;22.60;68.60
27188;DHT22;14708;50.872;5.306;2023-05-07T13:20:55;22.60;68.40
27188;DHT22;14708;50.872;5.306;2023-05-07T13:23:21;22.70;69.00
27188;DHT22;14708;50.872;5.306;2023-05-07T13:25:48;22.70;68.90
27188;DHT22;14708;50.872;5.306;2023-05-07T13:28:14;22.70;69.00
27188;DHT22;14708;50.872;5.306;2023-05-07T13:30:40;22.60;69.10
27188;DHT22;14708;50.872;5.306;2023-05-07T13:33:06;22.60;69.30
27188;DHT22;14708;50.872;5.306;2023-05-07T13:35:32;22.60;69.20
27188;DHT22;14708;50.872;5.306;2023-05-07T13:37:58;22.70;69.10
27188;DHT22;14708;50.872;5.306;2023-05-07T13:40:24;22.80;69.00
27188;DHT22;14708;50.872;5.306;2023-05-07T13:42:50;22.90;68.70
27188;DHT22;14708;50.872;5.306;2023-05-07T13:45:18;23.00;68.60
27188;DHT22;14708;50.872;5.306;2023-05-07T13:47:44;23.10;68.40
27188;DHT22;14708;50.872;5.306;2023-05-07T13:50:11;23.30;67.90
27188;DHT22;14708;50.872;5.306;2023-05-07T13:52:42;23.30;67.80
27188;DHT22;14708;50.872;5.306;2023-05-07T13:55:09;23.40;67.60
27188;DHT22;14708;50.872;5.306;2023-05-07T13:57:36;23.40;67.70
27188;DHT22;14708;50.872;5.306;2023-05-07T14:00:03;23.40;67.70
27188;DHT22;14708;50.872;5.306;2023-05-07T14:02:30;23.40;67.70
27188;DHT22;14708;50.872;5.306;2023-05-07T14:04:56;23.40;67.80
27188;DHT22;14708;50.872;5.306;2023-05-07T14:07:22;23.40;67.70
27188;DHT22;14708;50.872;5.306;2023-05-07T14:09:47;23.40;67.50
27188;DHT22;14708;50.872;5.306;2023-05-07T14:12:13;23.50;67.90
27188;DHT22;14708;50.872;5.306;2023-05-07T14:14:39;23.50;67.80
27188;DHT22;14708;50.872;5.306;2023-05-07T14:17:04;23.50;67.80
27188;DHT22;14708;50.872;5.306;2023-05-07T14:19:30;23.50;67.60
27188;DHT22;14708;50.872;5.306;2023-05-07T14:21:56;23.50;67.50
27188;DHT22;14708;50.872;5.306;2023-05-07T14:24:21;23.50;67.60
27188;DHT22;14708;50.872;5.306;2023-05-07T14:26:47;23.50;67.70
27188;DHT22;14708;50.872;5.306;2023-05-07T14:29:13;23.50;67.80
27188;DHT22;14708;50.872;5.306;2023-05-07T14:31:40;23.50;67.60
27188;DHT22;14708;50.872;5.306;2023-05-07T14:34:06;23.40;67.70
27188;DHT22;14708;50.872;5.306;2023-05-07T14:36:32;23.40;67.70
27188;DHT22;14708;50.872;5.306;2023-05-07T14:38:58;23.40;67.60
27188;DHT22;14708;50.872;5.306;2023-05-07T14:41:24;23.40;67.60
27188;DHT22;14708;50.872;5.306;2023-05-07T14:43:50;23.40;67.90
27188;DHT22;14708;50.872;5.306;2023-05-07T14:46:17;23.40;67.30
27188;DHT22;14708;50.872;5.306;2023-05-07T14:48:44;23.40;67.20
27188;DHT22;14708;50.872;5.306;2023-05-07T14:51:10;23.40;67.40
27188;DHT22;14708;50.872;5.306;2023-05-07T14:53:36;23.30;67.60
27188;DHT22;14708;50.872;5.306;2023-05-07T14:56:02;23.30;67.90
27188;DHT22;14708;50.872;5.306;2023-05-07T14:58:28;23.20;67.80
27188;DHT22;14708;50.872;5.306;2023-05-07T15:00:54;23.20;68.10
27188;DHT22;14708;50.872;5.306;2023-05-07T15:03:20;23.30;67.90
27188;DHT22;14708;50.872;5.306;2023-05-07T15:05:45;23.30;67.60
27188;DHT22;14708;50.872;5.306;2023-05-07T15:08:11;23.30;67.50
27188;DHT22;14708;50.872;5.306;2023-05-07T15:10:38;23.30;67.30
27188;DHT22;14708;50.872;5.306;2023-05-07T15:13:10;23.40;67.10
27188;DHT22;14708;50.872;5.306;2023-05-07T15:15:36;23.50;64.20
27188;DHT22;14708;50.872;5.306;2023-05-07T15:18:02;23.70;62.60
27188;DHT22;14708;50.872;5.306;2023-05-07T15:20:28;23.70;64.70
27188;DHT22;14708;50.872;5.306;2023-05-07T15:22:54;23.70;65.40
27188;DHT22;14708;50.872;5.306;2023-05-07T15:25:20;23.60;65.20
27188;DHT22;14708;50.872;5.306;2023-05-07T15:27:46;23.70;65.70
27188;DHT22;14708;50.872;5.306;2023-05-07T15:30:12;23.60;65.90
27188;DHT22;14708;50.872;5.306;2023-05-07T15:32:40;23.50;66.10
27188;DHT22;14708;50.872;5.306;2023-05-07T15:35:08;23.50;66.30
27188;DHT22;14708;50.872;5.306;2023-05-07T15:37:39;23.60;66.20
27188;DHT22;14708;50.872;5.306;2023-05-07T15:40:13;23.60;65.70
27188;DHT22;14708;50.872;5.306;2023-05-07T15:42:44;23.70;66.10
27188;DHT22;14708;50.872;5.306;2023-05-07T15:45:11;23.70;65.60
27188;DHT22;14708;50.872;5.306;2023-05-07T15:47:36;23.70;66.00
27188;DHT22;14708;50.872;5.306;2023-05-07T15:50:03;23.80;66.00
27188;DHT22;14708;50.872;5.306;2023-05-07T15:52:29;23.80;66.20
27188;DHT22;14708;50.872;5.306;2023-05-07T15:54:56;23.80;66.40
27188;DHT22;14708;50.872;5.306;2023-05-07T15:57:23;23.80;66.80
27188;DHT22;14708;50.872;5.306;2023-05-07T15:59:48;23.80;67.10